Weather History for Harrisburg, IL

Change the Weather History Date:

Tuesday, March 11, 2014

  Actual Average (KMWA) Record (KMWA)
Temperature  
Mean Temperature 58 °F -  
Max Temperature 73 °F 52 °F 79 °F (1990)
Min Temperature 43 °F 32 °F 14 °F (1998)
Degree Days  
Heating Degree Days 7    
Growing Degree Days 8 (Base 50)    
Moisture  
Dew Point 48 °F    
Average Humidity 68    
Maximum Humidity 96    
Minimum Humidity 33    
Precipitation  
Precipitation 0.00 in - - ()
Sea Level Pressure  
Sea Level Pressure 29.67 in    
Wind  
Wind Speed 8 mph (SSW)    
Max Wind Speed 16 mph    
Max Gust Speed 23 mph    
Visibility 10 miles    
Events Rain    
Averages and records for this station are not official NWS values.
T = Trace of Precipitation, MM = Missing Value Source: NWS Daily Summary

Daily Weather History Graph

Daily Weather History Graph

Search for Another Location

Airport:

Trip Planner

Search our weather history database for the weather conditions in past years. The results will help you decide how hot, cold, wet, or windy it might be!

Date:

Astronomy

Mar. 11, 2014 Rise Set
Actual Time 7:11 AM CDT 6:57 PM CDT
Civil Twilight 6:45 AM CDT 7:23 PM CDT
Nautical Twilight 6:14 AM CDT 7:54 PM CDT
Astronomical Twilight 5:44 AM CDT 8:24 PM CDT
Moon 2:37 PM CDT (3/11) 4:00 AM CDT (3/11)
Length of Visible Light 12h 38m
Length of Day
11h 46m
Waxing Gibbous, 78% of the Moon is Illuminated
Mar 11
Waxing Gibbous
Mar 16
Full
Mar 23
Last Quarter
Mar 30
New
Apr 7
First Quarter

Hourly Weather History & Observations

Time (CDT) Temp. Windchill Dew Point Humidity Pressure Visibility Wind Dir Wind Speed Gust Speed Precip Events Conditions
12:15 AM 52.9 °F - 46.6 °F 79% 29.80 in 10.0 mi SW 8.1 mph - N/A   Clear
12:35 AM 52.7 °F - 46.6 °F 80% 29.80 in 10.0 mi SW 9.2 mph - N/A   Clear
12:55 AM 52.9 °F - 46.4 °F 79% 29.79 in 10.0 mi SW 8.1 mph - N/A   Clear
1:15 AM 53.1 °F - 46.4 °F 78% 29.78 in 10.0 mi SW 10.4 mph - N/A   Clear
1:35 AM 52.7 °F - 46.2 °F 79% 29.78 in 10.0 mi SW 8.1 mph - N/A   Clear
1:55 AM 52.9 °F - 46.0 °F 78% 29.78 in 10.0 mi SW 9.2 mph - N/A   Clear
2:15 AM 52.7 °F - 45.9 °F 78% 29.78 in 10.0 mi SW 8.1 mph - N/A   Clear
2:35 AM 52.7 °F - 45.7 °F 77% 29.78 in 10.0 mi SW 9.2 mph - N/A   Clear
2:55 AM 52.3 °F - 45.5 °F 78% 29.77 in 10.0 mi SW 9.2 mph - N/A   Clear
3:15 AM 51.4 °F - 45.5 °F 80% 29.77 in 10.0 mi SW 6.9 mph - N/A   Clear
3:35 AM 51.1 °F - 45.1 °F 80% 29.76 in 10.0 mi SW 6.9 mph - N/A   Clear
3:55 AM 50.0 °F - 44.8 °F 82% 29.75 in 10.0 mi SW 8.1 mph - N/A   Clear
4:15 AM 49.5 °F - 44.8 °F 84% 29.75 in 10.0 mi SW 8.1 mph - N/A   Clear
4:35 AM 48.9 °F - 44.4 °F 84% 29.75 in 10.0 mi SW 6.9 mph - N/A   Clear
4:55 AM 48.2 °F - 44.1 °F 86% 29.74 in 10.0 mi SW 4.6 mph - N/A   Clear
5:15 AM 47.7 °F - 43.9 °F 87% 29.75 in 10.0 mi SW 4.6 mph - N/A   Clear
5:35 AM 47.1 °F - 43.5 °F 87% 29.74 in 10.0 mi SW 5.8 mph - N/A   Clear
5:55 AM 47.1 °F - 43.7 °F 88% 29.74 in 10.0 mi SSW 5.8 mph - N/A   Clear
6:15 AM 47.5 °F - 43.7 °F 87% 29.74 in 10.0 mi SSW 4.6 mph - N/A   Clear
6:35 AM 43.9 °F - 41.0 °F 90% 29.74 in 7.0 mi Calm Calm - N/A   Clear
6:55 AM 45.0 °F 41.2 °F 43.9 °F 96% 29.75 in 10.0 mi SSW 6.9 mph - N/A   Clear
7:15 AM 46.0 °F 43.1 °F 43.5 °F 91% 29.74 in 7.0 mi SSW 5.8 mph - N/A   Clear
7:35 AM 46.4 °F 45.2 °F 44.2 °F 92% 29.74 in 7.0 mi SSW 3.5 mph - N/A   Clear
7:55 AM 46.8 °F - 44.2 °F 91% 29.74 in 7.0 mi Calm Calm - N/A   Clear
8:15 AM 47.7 °F - 45.0 °F 90% 29.75 in 7.0 mi SSW 4.6 mph - N/A   Clear
8:35 AM 49.3 °F - 45.5 °F 87% 29.75 in 7.0 mi SSW 5.8 mph - N/A   Clear
8:55 AM 50.5 °F - 45.7 °F 83% 29.74 in 10.0 mi SSW 5.8 mph - N/A   Clear
9:15 AM 52.3 °F - 46.4 °F 80% 29.75 in 10.0 mi SSW 6.9 mph - N/A   Clear
9:35 AM 53.8 °F - 46.4 °F 76% 29.75 in 10.0 mi SSW 5.8 mph - N/A   Clear
9:55 AM 56.5 °F - 46.9 °F 70% 29.74 in 10.0 mi SSW 6.9 mph - N/A   Clear
10:15 AM 58.3 °F - 47.3 °F 67% 29.74 in 10.0 mi SSW 6.9 mph - N/A   Clear
10:35 AM 60.4 °F - 47.3 °F 62% 29.73 in 10.0 mi SSW 6.9 mph - N/A   Clear
10:55 AM 62.6 °F - 47.8 °F 58% 29.72 in 10.0 mi SSW 6.9 mph - N/A   Clear
11:15 AM 63.9 °F - 47.7 °F 56% 29.71 in 10.0 mi SSW 8.1 mph - N/A   Clear
11:35 AM 65.7 °F - 47.5 °F 52% 29.71 in 10.0 mi SSW 8.1 mph - N/A   Clear
11:55 AM 67.1 °F - 46.8 °F 48% 29.71 in 10.0 mi SSW 9.2 mph - N/A   Clear
12:15 PM 68.0 °F - 46.6 °F 46% 29.71 in 10.0 mi SSW 8.1 mph - N/A   Clear
12:35 PM 69.1 °F - 47.3 °F 46% 29.70 in 10.0 mi South 10.4 mph - N/A   Clear
12:55 PM 69.8 °F - 46.6 °F 43% 29.70 in 10.0 mi SSW 10.4 mph - N/A   Clear
1:15 PM 70.9 °F - 46.9 °F 42% 29.69 in 10.0 mi SW 10.4 mph - N/A   Clear
1:35 PM 71.4 °F - 45.3 °F 39% 29.67 in 10.0 mi SSW 11.5 mph 16.1 mph N/A   Clear
1:55 PM 72.1 °F - 45.1 °F 38% 29.66 in 10.0 mi SSW 12.7 mph - N/A   Clear
2:15 PM 72.5 °F - 43.0 °F 35% 29.66 in 10.0 mi SW 13.8 mph 18.4 mph N/A   Clear
2:35 PM 72.5 °F - 41.5 °F 33% 29.64 in 10.0 mi SSW 11.5 mph 20.7 mph N/A   Clear
2:55 PM 72.7 °F - 43.0 °F 34% 29.64 in 10.0 mi SW 10.4 mph 15.0 mph N/A   Clear
3:15 PM 72.9 °F - 43.7 °F 35% 29.62 in 10.0 mi SSW 11.5 mph 20.7 mph N/A   Clear
3:35 PM 72.9 °F - 44.8 °F 37% 29.61 in 10.0 mi SW 12.7 mph 18.4 mph N/A   Clear
3:55 PM 73.0 °F - 45.3 °F 37% 29.61 in 10.0 mi SW 11.5 mph - N/A   Clear
4:15 PM 73.4 °F - 46.8 °F 39% 29.61 in 10.0 mi SW 12.7 mph - N/A   Clear
4:35 PM 72.7 °F - 48.7 °F 43% 29.60 in 10.0 mi SW 16.1 mph 19.6 mph N/A   Clear
4:55 PM 71.6 °F - 50.4 °F 47% 29.60 in 10.0 mi South 13.8 mph 19.6 mph N/A   Clear
5:15 PM 70.2 °F - 53.1 °F 55% 29.60 in 10.0 mi SSW 9.2 mph 18.4 mph N/A   Scattered Clouds
5:35 PM 71.2 °F - 53.4 °F 53% 29.59 in 10.0 mi SSW 12.7 mph 20.7 mph N/A   Scattered Clouds
5:55 PM 70.2 °F - 54.3 °F 57% 29.58 in 10.0 mi SSW 11.5 mph 17.3 mph N/A   Clear
6:15 PM 69.3 °F - 54.5 °F 59% 29.58 in 10.0 mi SSW 9.2 mph - N/A   Clear
6:35 PM 69.1 °F - 54.5 °F 60% 29.58 in 10.0 mi SSW 4.6 mph - N/A   Clear
6:55 PM 67.5 °F - 54.5 °F 63% 29.58 in 10.0 mi SSW 5.8 mph - N/A   Scattered Clouds
7:15 PM 68.0 °F - 54.0 °F 61% 29.59 in 10.0 mi SSW 4.6 mph - N/A   Mostly Cloudy
7:35 PM 66.2 °F - 54.5 °F 66% 29.59 in 10.0 mi SSW 3.5 mph - N/A   Mostly Cloudy
7:55 PM 65.8 °F - 54.3 °F 66% 29.58 in 10.0 mi SSW 5.8 mph - N/A   Scattered Clouds
8:15 PM 65.3 °F - 55.4 °F 70% 29.58 in 10.0 mi SSW 5.8 mph - N/A   Clear
8:35 PM 64.4 °F - 55.6 °F 73% 29.58 in 10.0 mi SSW 3.5 mph - N/A   Clear
8:55 PM 64.6 °F - 55.4 °F 72% 29.56 in 10.0 mi South 3.5 mph - N/A   Clear
9:15 PM 64.2 °F - 55.4 °F 73% 29.56 in 10.0 mi South 4.6 mph - N/A   Clear
9:35 PM 62.8 °F - 56.5 °F 80% 29.56 in 10.0 mi SW 4.6 mph - N/A Rain Light Rain
9:55 PM 61.2 °F - 56.5 °F 85% 29.55 in 10.0 mi Calm Calm - N/A   Scattered Clouds
10:15 PM 62.1 °F - 55.8 °F 80% 29.54 in 10.0 mi South 4.6 mph - N/A   Clear
10:35 PM 62.8 °F - 56.3 °F 79% 29.53 in 10.0 mi SSW 6.9 mph - N/A   Clear
10:55 PM 63.1 °F - 56.3 °F 78% 29.51 in 10.0 mi SSW 8.1 mph - N/A   Clear
11:15 PM 63.7 °F - 56.3 °F 77% 29.51 in 10.0 mi SW 15.0 mph 20.7 mph N/A   Clear
11:35 PM 63.9 °F - 56.3 °F 76% 29.51 in 10.0 mi SSW 15.0 mph 19.6 mph N/A   Scattered Clouds
11:55 PM 63.7 °F - 56.3 °F 77% 29.49 in 10.0 mi SSW 12.7 mph 23.0 mph N/A   Scattered Clouds